Aviation Digital Data Service (ADDS)

Output produced by METARs form (1515 UTC 20 November 2018)
found at http://www.aviationweather.gov/metar/data/
 
METAR text: KLVK 201511Z 00000KT 2 1/2SM HZ FU CLR 03/M02 A3001 RMK AO2 T00281017
Conditions at: KLVK (LIVERMORE , CA, US) observed 1511 UTC 20 November 2018
Temperature: 2.8°C (37°F)
Dewpoint: -1.7°C (29°F) [RH = 72%]
Pressure (altimeter): 30.01 inches Hg (1016.3 mb)
Winds: calm
Visibility: 2.50 miles (4.02 km)
Ceiling: at least 12,000 feet AGL
Clouds: sky clear below 12,000 feet AGL
Weather: HZ FU  (haze, smoke)

METAR text: KLVK 201453Z 07003KT 4SM HZ FU CLR 02/M02 A3001 RMK AO2 SLP162 T00221017 53006
Conditions at: KLVK (LIVERMORE , CA, US) observed 1453 UTC 20 November 2018
Temperature: 2.2°C (36°F)
Dewpoint: -1.7°C (29°F) [RH = 75%]
Pressure (altimeter): 30.01 inches Hg (1016.3 mb)
[Sea-level pressure: 1016.2 mb]
Winds: from the ENE (70 degrees) at 3 MPH (3 knots; 1.5 m/s)
Visibility: 4 miles ( 6 km)
Ceiling: at least 12,000 feet AGL
Clouds: sky clear below 12,000 feet AGL
Weather: HZ FU  (haze, smoke)

METAR text: KLVK 201353Z AUTO 00000KT 3SM HZ FU CLR 03/M02 A2999 RMK AO2 SLP157 T00281022
Conditions at: KLVK (LIVERMORE , CA, US) observed 1353 UTC 20 November 2018
Temperature: 2.8°C (37°F)
Dewpoint: -2.2°C (28°F) [RH = 70%]
Pressure (altimeter): 29.99 inches Hg (1015.7 mb)
[Sea-level pressure: 1015.7 mb]
Winds: calm
Visibility: 3 miles ( 5 km)
Ceiling: at least 12,000 feet AGL
Clouds: sky clear below 12,000 feet AGL
Weather: HZ FU  (haze, smoke)

METAR text: KLVK 201253Z AUTO 00000KT 3SM HZ FU CLR 03/M02 A2998 RMK AO2 SLP152 T00281022
Conditions at: KLVK (LIVERMORE , CA, US) observed 1253 UTC 20 November 2018
Temperature: 2.8°C (37°F)
Dewpoint: -2.2°C (28°F) [RH = 70%]
Pressure (altimeter): 29.98 inches Hg (1015.3 mb)
[Sea-level pressure: 1015.2 mb]
Winds: calm
Visibility: 3 miles ( 5 km)
Ceiling: at least 12,000 feet AGL
Clouds: sky clear below 12,000 feet AGL
Weather: HZ FU  (haze, smoke)

METAR text: KLVK 201153Z AUTO 00000KT 3SM HZ FU CLR 03/M02 A2999 RMK AO2 SLP155 T00331022 10072 20022 58010
Conditions at: KLVK (LIVERMORE , CA, US) observed 1153 UTC 20 November 2018
Temperature: 3.3°C (38°F)
Dewpoint: -2.2°C (28°F) [RH = 67%]
Pressure (altimeter): 29.99 inches Hg (1015.7 mb)
[Sea-level pressure: 1015.5 mb]
Winds: calm
Visibility: 3 miles ( 5 km)
Ceiling: at least 12,000 feet AGL
Clouds: sky clear below 12,000 feet AGL
Weather: HZ FU  (haze, smoke)

METAR text: KLVK 201053Z AUTO 09005KT 3SM HZ FU CLR 03/M02 A3000 RMK AO2 SLP158 T00281022
Conditions at: KLVK (LIVERMORE , CA, US) observed 1053 UTC 20 November 2018
Temperature: 2.8°C (37°F)
Dewpoint: -2.2°C (28°F) [RH = 70%]
Pressure (altimeter): 30.00 inches Hg (1016.0 mb)
[Sea-level pressure: 1015.8 mb]
Winds: from the E (90 degrees) at 6 MPH (5 knots; 2.6 m/s)
Visibility: 3 miles ( 5 km)
Ceiling: at least 12,000 feet AGL
Clouds: sky clear below 12,000 feet AGL
Weather: HZ FU  (haze, smoke)

METAR text: KLVK 200953Z AUTO 09003KT 3SM HZ FU CLR 04/M01 A3001 RMK AO2 SLP164 T00391006
Conditions at: KLVK (LIVERMORE , CA, US) observed 0953 UTC 20 November 2018
Temperature: 3.9°C (39°F)
Dewpoint: -0.6°C (31°F) [RH = 72%]
Pressure (altimeter): 30.01 inches Hg (1016.3 mb)
[Sea-level pressure: 1016.4 mb]
Winds: from the E (90 degrees) at 3 MPH (3 knots; 1.5 m/s)
Visibility: 3 miles ( 5 km)
Ceiling: at least 12,000 feet AGL
Clouds: sky clear below 12,000 feet AGL
Weather: HZ FU  (haze, smoke)

METAR text: KLVK 200903Z AUTO 00000KT 3SM HZ FU CLR 04/M02 A3002 RMK AO2 T00391017
Conditions at: KLVK (LIVERMORE , CA, US) observed 0903 UTC 20 November 2018
Temperature: 3.9°C (39°F)
Dewpoint: -1.7°C (29°F) [RH = 67%]
Pressure (altimeter): 30.02 inches Hg (1016.7 mb)
Winds: calm
Visibility: 3 miles ( 5 km)
Ceiling: at least 12,000 feet AGL
Clouds: sky clear below 12,000 feet AGL
Weather: HZ FU  (haze, smoke)

METAR text: KLVK 200853Z AUTO 00000KT 2 1/2SM HZ FU CLR 04/M02 A3002 RMK AO2 SLP165 T00441017 53000
Conditions at: KLVK (LIVERMORE , CA, US) observed 0853 UTC 20 November 2018
Temperature: 4.4°C (40°F)
Dewpoint: -1.7°C (29°F) [RH = 64%]
Pressure (altimeter): 30.02 inches Hg (1016.7 mb)
[Sea-level pressure: 1016.5 mb]
Winds: calm
Visibility: 2.50 miles (4.02 km)
Ceiling: at least 12,000 feet AGL
Clouds: sky clear below 12,000 feet AGL
Weather: HZ FU  (haze, smoke)

METAR text: KLVK 200839Z AUTO 27003KT 2 1/2SM HZ FU CLR 04/M02 A3002 RMK AO2 T00441017
Conditions at: KLVK (LIVERMORE , CA, US) observed 0839 UTC 20 November 2018
Temperature: 4.4°C (40°F)
Dewpoint: -1.7°C (29°F) [RH = 64%]
Pressure (altimeter): 30.02 inches Hg (1016.7 mb)
Winds: from the W (270 degrees) at 3 MPH (3 knots; 1.5 m/s)
Visibility: 2.50 miles (4.02 km)
Ceiling: at least 12,000 feet AGL
Clouds: sky clear below 12,000 feet AGL
Weather: HZ FU  (haze, smoke)

METAR text: KLVK 200753Z AUTO 00000KT 3SM HZ FU CLR 04/M02 A3001 RMK AO2 SLP162 T00391022 401890022
Conditions at: KLVK (LIVERMORE , CA, US) observed 0753 UTC 20 November 2018
Temperature: 3.9°C (39°F)
Dewpoint: -2.2°C (28°F) [RH = 64%]
Pressure (altimeter): 30.01 inches Hg (1016.3 mb)
[Sea-level pressure: 1016.2 mb]
Winds: calm
Visibility: 3 miles ( 5 km)
Ceiling: at least 12,000 feet AGL
Clouds: sky clear below 12,000 feet AGL
Weather: HZ FU  (haze, smoke)

Forecast for: KLVK (LIVERMORE , CA, US)
Text: KLVK 201139Z 2012/2112 09005KT 3SM FU HZ SCT200
Forecast period: 1200 to 1400 UTC 20 November 2018
Forecast type: FROM: standard forecast or significant change
Winds: from the E (90 degrees) at 6 MPH (5 knots; 2.6 m/s)
Visibility: 3 miles (5 km)
Ceiling: at least 12,000 feet AGL
Clouds: scattered clouds at 20000 feet AGL
Weather: FU HZ  (smoke, haze)
Text: FM201400 00000KT 3SM FU HZ SCT200
Forecast period: 1400 to 2000 UTC 20 November 2018
Forecast type: FROM: standard forecast or significant change
Winds: calm
Visibility: 3 miles (5 km)
Ceiling: at least 12,000 feet AGL
Clouds: scattered clouds at 20000 feet AGL
Weather: FU HZ  (smoke, haze)
Text: FM202000 06009KT 3SM FU HZ SCT200
Forecast period: 2000 UTC 20 November 2018 to 0200 UTC 21 November 2018
Forecast type: FROM: standard forecast or significant change
Winds: from the ENE (60 degrees) at 10 MPH (9 knots; 4.6 m/s)
Visibility: 3 miles (5 km)
Ceiling: at least 12,000 feet AGL
Clouds: scattered clouds at 20000 feet AGL
Weather: FU HZ  (smoke, haze)
Text: FM210200 04003KT 4SM FU HZ SCT200
Forecast period: 0200 to 1000 UTC 21 November 2018
Forecast type: FROM: standard forecast or significant change
Winds: from the NE (40 degrees) at 3 MPH (3 knots; 1.5 m/s)
Visibility: 4 miles (6 km)
Ceiling: at least 12,000 feet AGL
Clouds: scattered clouds at 20000 feet AGL
Weather: FU HZ  (smoke, haze)
Text: FM211000 07005KT P6SM BKN030 OVC050
Forecast period: 1000 to 1200 UTC 21 November 2018
Forecast type: FROM: standard forecast or significant change
Winds: from the ENE (70 degrees) at 6 MPH (5 knots; 2.6 m/s)
Visibility: 6 or more miles 10+ km)
Ceiling: 3000 feet AGL
Clouds: broken clouds at 3000 feet AGL
overcast cloud deck at 5000 feet AGL
Weather: no significant weather forecast for this period
Text: TEMPO 2110/2112 P6SM -SHRA
Forecast period: 1000 to 1200 UTC 21 November 2018
Forecast type: TEMPORARY: The following changes expected for less than half the time period
Visibility: 6 or more miles 10+ km)
Ceiling: unknown
Clouds: missing
Weather: -SHRA  (light rain showers)